createdAt,value
2023-02-03T00:01:49.939Z,1.75
2023-02-03T00:04:16.395Z,1.92
2023-02-03T00:06:42.923Z,1.90
2023-02-03T00:09:09.388Z,2.13
2023-02-03T00:11:35.866Z,2.22
2023-02-03T00:14:02.360Z,2.00
2023-02-03T00:16:28.678Z,2.20
2023-02-03T00:18:54.972Z,2.17
2023-02-03T00:21:22.271Z,1.80
2023-02-03T00:23:48.619Z,2.00
2023-02-03T00:26:16.716Z,1.90
2023-02-03T00:28:44.063Z,1.88
2023-02-03T00:31:21.013Z,1.67
2023-02-03T00:33:48.154Z,2.05
2023-02-03T00:36:14.677Z,1.73
2023-02-03T00:38:41.028Z,1.60
2023-02-03T00:41:07.549Z,1.80
2023-02-03T00:43:33.995Z,1.73
2023-02-03T00:46:00.415Z,1.75
2023-02-03T00:48:26.877Z,1.65
2023-02-03T00:50:53.205Z,1.77
2023-02-03T00:53:19.537Z,2.03
2023-02-03T00:55:45.843Z,1.77
2023-02-03T00:58:12.172Z,1.70
2023-02-03T01:00:38.651Z,1.80
2023-02-03T01:03:05.187Z,1.95
2023-02-03T01:05:31.489Z,2.08
2023-02-03T01:07:57.820Z,1.77
2023-02-03T01:10:24.308Z,1.83
2023-02-03T01:12:50.714Z,1.77
2023-02-03T01:15:17.982Z,1.95
2023-02-03T01:17:44.303Z,2.40
2023-02-03T01:20:11.628Z,1.87
2023-02-03T01:22:38.055Z,2.17
2023-02-03T01:25:04.749Z,1.60
2023-02-03T01:27:32.997Z,2.33
2023-02-03T01:29:59.592Z,1.75
2023-02-03T01:32:26.367Z,1.60
2023-02-03T01:34:52.710Z,2.10
2023-02-03T01:37:19.052Z,2.05
2023-02-03T01:39:45.402Z,2.10
2023-02-03T01:42:15.728Z,2.25
2023-02-03T01:44:41.987Z,1.80
2023-02-03T01:47:55.073Z,1.95
2023-02-03T01:50:34.564Z,1.52
2023-02-03T01:53:10.457Z,2.05
2023-02-03T01:55:44.325Z,1.60
2023-02-03T01:58:41.482Z,1.80
2023-02-03T02:01:07.975Z,1.50
2023-02-03T02:04:03.099Z,1.80
2023-02-03T02:06:29.511Z,1.50
2023-02-03T02:08:58.448Z,1.40
2023-02-03T02:11:24.840Z,1.60
2023-02-03T02:13:53.533Z,1.67
2023-02-03T02:16:38.398Z,1.67
2023-02-03T02:19:49.924Z,1.45
2023-02-03T02:22:34.719Z,1.25
2023-02-03T02:25:19.351Z,1.70
2023-02-03T02:28:01.224Z,1.30
2023-02-03T02:31:11.554Z,2.25
2023-02-03T02:33:49.453Z,1.70
2023-02-03T02:36:34.505Z,1.35
2023-02-03T02:39:17.638Z,1.40
2023-02-03T02:41:51.436Z,1.40
2023-02-03T02:44:56.864Z,1.30
2023-02-03T02:47:24.072Z,1.17
2023-02-03T02:50:11.423Z,1.30
2023-02-03T02:52:42.697Z,1.30
2023-02-03T02:55:19.055Z,1.40
2023-02-03T02:57:47.884Z,1.25
2023-02-03T03:00:14.680Z,1.35
2023-02-03T03:02:41.045Z,1.27
2023-02-03T03:05:10.570Z,1.40
2023-02-03T03:07:45.346Z,1.33
2023-02-03T03:10:16.050Z,1.52
2023-02-03T03:12:54.137Z,1.52
2023-02-03T03:15:24.745Z,1.50
2023-02-03T03:18:08.843Z,1.50
2023-02-03T03:20:38.775Z,1.52
2023-02-03T03:23:09.431Z,1.60
2023-02-03T03:25:42.970Z,1.42
2023-02-03T03:28:17.204Z,1.40
2023-02-03T03:30:43.810Z,1.37
2023-02-03T03:33:10.560Z,1.55
2023-02-03T03:35:49.021Z,1.92
2023-02-03T03:38:21.538Z,1.58
2023-02-03T03:41:04.599Z,1.95
2023-02-03T03:43:38.050Z,1.50
2023-02-03T03:46:16.599Z,1.52
2023-02-03T03:48:48.711Z,1.40
2023-02-03T03:51:27.048Z,1.10
2023-02-03T03:53:56.891Z,1.30
2023-02-03T03:56:28.423Z,1.20
2023-02-03T03:58:55.670Z,1.65
2023-02-03T04:01:23.602Z,1.20
2023-02-03T04:03:55.749Z,1.73
2023-02-03T04:06:22.119Z,1.65
2023-02-03T04:08:48.578Z,1.40
2023-02-03T04:11:14.970Z,1.90
2023-02-03T04:13:41.265Z,1.20
2023-02-03T04:16:07.640Z,1.13
2023-02-03T04:18:34.066Z,1.33
2023-02-03T04:21:00.357Z,1.53
2023-02-03T04:23:26.696Z,1.27
2023-02-03T04:25:53.097Z,1.20
2023-02-03T04:28:19.473Z,1.40
2023-02-03T04:30:45.820Z,1.00
2023-02-03T04:33:12.249Z,1.00
2023-02-03T04:35:38.682Z,2.15
2023-02-03T04:38:04.970Z,1.17
2023-02-03T04:40:33.355Z,1.60
2023-02-03T04:43:06.215Z,2.13
2023-02-03T04:45:32.631Z,1.70
2023-02-03T04:47:59.013Z,1.23
2023-02-03T04:50:25.737Z,1.75
2023-02-03T04:52:52.301Z,1.90
2023-02-03T04:55:18.626Z,1.30
2023-02-03T04:57:44.952Z,1.10
2023-02-03T05:00:11.987Z,1.75
2023-02-03T05:02:38.338Z,1.45
2023-02-03T05:05:05.024Z,1.38
2023-02-03T05:07:31.381Z,2.13
2023-02-03T05:09:57.750Z,1.57
2023-02-03T05:12:24.082Z,1.65
2023-02-03T05:14:50.537Z,1.58
2023-02-03T05:17:16.910Z,1.40
2023-02-03T05:19:43.249Z,1.20
2023-02-03T05:22:09.668Z,1.60
2023-02-03T05:24:36.083Z,1.42
2023-02-03T05:27:02.462Z,1.85
2023-02-03T05:29:28.896Z,1.38
2023-02-03T05:31:55.273Z,1.77
2023-02-03T05:34:21.913Z,1.50
2023-02-03T05:36:48.335Z,1.58
2023-02-03T05:39:14.717Z,1.17
2023-02-03T05:41:41.036Z,1.27
2023-02-03T05:44:07.460Z,1.77
2023-02-03T05:46:33.810Z,1.70
2023-02-03T05:49:00.148Z,1.77
2023-02-03T05:51:26.564Z,1.30
2023-02-03T05:53:52.893Z,1.48
2023-02-03T05:56:19.274Z,1.73
2023-02-03T05:58:45.653Z,1.33
2023-02-03T06:01:12.084Z,1.45
2023-02-03T06:03:38.642Z,1.30
2023-02-03T06:06:05.087Z,1.70
2023-02-03T06:08:31.494Z,1.58
2023-02-03T06:10:59.191Z,1.83
2023-02-03T06:13:25.580Z,1.50
2023-02-03T06:15:51.981Z,1.92
2023-02-03T06:18:18.366Z,1.33
2023-02-03T06:20:44.705Z,1.85
2023-02-03T06:23:11.169Z,1.53
2023-02-03T06:25:37.632Z,1.70
2023-02-03T06:28:04.320Z,1.63
2023-02-03T06:30:31.101Z,1.48
2023-02-03T06:32:57.643Z,2.08
2023-02-03T06:35:24.056Z,1.50
2023-02-03T06:37:50.539Z,1.20
2023-02-03T06:40:16.914Z,1.50
2023-02-03T06:42:47.556Z,1.50
2023-02-03T06:45:14.757Z,1.33
2023-02-03T06:47:42.589Z,1.50
2023-02-03T06:50:11.314Z,1.85
2023-02-03T06:52:37.733Z,1.67
2023-02-03T06:55:05.280Z,1.50
2023-02-03T06:57:32.480Z,1.55
2023-02-03T06:59:59.102Z,1.87
2023-02-03T07:02:25.567Z,1.48
2023-02-03T07:04:51.919Z,1.98
2023-02-03T07:07:18.343Z,1.60
2023-02-03T07:09:44.706Z,2.20
2023-02-03T07:12:11.047Z,1.53
2023-02-03T07:14:37.442Z,1.75
2023-02-03T07:17:03.788Z,1.55
2023-02-03T07:19:30.126Z,1.70
2023-02-03T07:21:56.497Z,2.33
2023-02-03T07:24:22.892Z,1.50
2023-02-03T07:26:49.246Z,2.13
2023-02-03T07:29:15.661Z,2.40
2023-02-03T07:31:42.588Z,1.40
2023-02-03T07:34:09.221Z,1.70
2023-02-03T07:36:35.565Z,2.30
2023-02-03T07:39:01.928Z,1.83
2023-02-03T07:41:28.830Z,1.52
2023-02-03T07:43:55.157Z,1.85
2023-02-03T07:46:21.586Z,2.05
2023-02-03T07:48:47.930Z,1.77
2023-02-03T07:51:14.345Z,1.52
2023-02-03T07:53:40.692Z,1.95
2023-02-03T07:56:07.145Z,2.35
2023-02-03T07:58:33.687Z,1.75
2023-02-03T08:01:00.215Z,1.47
2023-02-03T08:03:26.762Z,1.95
2023-02-03T08:05:53.194Z,1.75
2023-02-03T08:08:19.832Z,1.63
2023-02-03T08:10:46.278Z,1.85
2023-02-03T08:13:12.688Z,1.60
2023-02-03T08:15:39.056Z,1.65
2023-02-03T08:18:05.447Z,1.70
2023-02-03T08:20:31.849Z,1.80
2023-02-03T08:22:58.171Z,1.80
2023-02-03T08:25:24.515Z,1.90
2023-02-03T08:27:51.046Z,1.98
2023-02-03T08:30:17.490Z,2.00
2023-02-03T08:32:43.947Z,1.30
2023-02-03T08:35:10.628Z,1.55
2023-02-03T08:37:37.702Z,1.90
2023-02-03T08:40:05.269Z,2.22
2023-02-03T08:42:31.777Z,1.70
2023-02-03T08:44:59.234Z,1.85
2023-02-03T08:47:26.349Z,1.80
2023-02-03T08:49:52.775Z,2.10
2023-02-03T08:52:21.055Z,2.00
2023-02-03T08:54:47.994Z,1.90
2023-02-03T08:57:15.096Z,1.70
2023-02-03T08:59:43.026Z,1.90
2023-02-03T09:02:14.641Z,1.90
2023-02-03T09:04:41.116Z,2.35
2023-02-03T09:07:07.553Z,1.80
2023-02-03T09:09:36.515Z,1.88
2023-02-03T09:12:06.212Z,1.73
2023-02-03T09:14:34.475Z,2.03
2023-02-03T09:17:02.356Z,1.67
2023-02-03T09:19:29.823Z,1.80
2023-02-03T09:21:56.220Z,2.05
2023-02-03T09:24:23.186Z,2.15
2023-02-03T09:26:49.812Z,1.77
2023-02-03T09:29:16.288Z,2.30
2023-02-03T09:31:42.779Z,1.80
2023-02-03T09:34:11.221Z,1.80
2023-02-03T09:36:37.639Z,2.20
2023-02-03T09:39:04.626Z,1.60
2023-02-03T09:41:46.454Z,1.45
2023-02-03T09:44:15.917Z,1.83
2023-02-03T09:46:48.249Z,1.50
2023-02-03T09:49:22.239Z,1.40
2023-02-03T09:52:11.941Z,1.60
2023-02-03T09:54:55.013Z,2.05
2023-02-03T09:57:23.986Z,2.00
2023-02-03T09:59:51.247Z,1.45
2023-02-03T10:02:43.477Z,1.35
2023-02-03T10:05:28.562Z,1.70
2023-02-03T10:08:19.879Z,1.67
2023-02-03T10:10:55.416Z,1.40
2023-02-03T10:13:38.104Z,1.65
2023-02-03T10:16:24.806Z,2.00
2023-02-03T10:18:54.183Z,1.80
2023-02-03T10:21:36.026Z,1.52
2023-02-03T10:24:06.137Z,1.35
2023-02-03T10:26:32.448Z,1.83
2023-02-03T10:29:14.809Z,1.20
2023-02-03T10:31:43.795Z,1.87
2023-02-03T10:34:12.387Z,1.50
2023-02-03T10:36:47.879Z,1.63
2023-02-03T10:39:31.050Z,1.98
2023-02-03T10:41:57.684Z,1.92
2023-02-03T10:44:33.421Z,1.80
2023-02-03T10:46:59.782Z,1.73
2023-02-03T10:49:27.832Z,2.00
2023-02-03T10:52:00.733Z,1.35
2023-02-03T10:54:35.949Z,1.50
2023-02-03T10:57:11.266Z,1.40
2023-02-03T10:59:42.371Z,1.80
2023-02-03T11:02:30.298Z,1.63
2023-02-03T11:05:15.930Z,1.85
2023-02-03T11:07:43.447Z,1.60
2023-02-03T11:10:29.793Z,1.80
2023-02-03T11:13:24.019Z,2.08
2023-02-03T11:15:59.907Z,2.28
2023-02-03T11:18:38.433Z,2.00
2023-02-03T11:21:11.778Z,1.98
2023-02-03T11:24:04.736Z,2.13
2023-02-03T11:26:41.713Z,1.80
2023-02-03T11:29:17.709Z,1.90
2023-02-03T11:31:49.418Z,1.88
2023-02-03T11:34:19.261Z,2.30
2023-02-03T11:36:45.681Z,1.70
2023-02-03T11:39:26.615Z,2.17
2023-02-03T11:41:53.636Z,2.22
2023-02-03T11:44:21.684Z,2.28
2023-02-03T11:46:52.611Z,1.85
2023-02-03T11:49:40.651Z,2.10
2023-02-03T11:52:29.854Z,1.40
2023-02-03T11:55:33.737Z,2.30
2023-02-03T11:58:26.680Z,2.30
2023-02-03T12:01:01.996Z,2.55
2023-02-03T12:03:45.020Z,2.17
2023-02-03T12:06:17.108Z,1.90
2023-02-03T12:09:07.638Z,2.35
2023-02-03T12:11:45.954Z,2.30
2023-02-03T12:14:27.656Z,2.25
2023-02-03T12:17:17.251Z,2.27
2023-02-03T12:19:50.737Z,2.40
2023-02-03T12:22:25.725Z,2.47
2023-02-03T12:24:58.291Z,2.00
2023-02-03T12:27:33.692Z,2.40
2023-02-03T12:30:08.836Z,2.33
2023-02-03T12:32:40.722Z,2.58
2023-02-03T12:35:22.964Z,2.17
2023-02-03T12:38:00.683Z,1.92
2023-02-03T12:40:35.775Z,2.13
2023-02-03T12:43:14.387Z,2.53
2023-02-03T12:45:51.773Z,2.38
2023-02-03T12:48:22.843Z,2.40
2023-02-03T12:50:53.606Z,2.60
2023-02-03T12:53:29.276Z,2.47
2023-02-03T12:56:10.178Z,2.20
2023-02-03T12:59:00.620Z,3.03
2023-02-03T13:01:35.308Z,2.70
2023-02-03T13:04:36.577Z,2.33
2023-02-03T13:07:25.172Z,2.83
2023-02-03T13:10:04.124Z,1.83
2023-02-03T13:12:48.062Z,2.50
2023-02-03T13:15:39.113Z,2.55
2023-02-03T13:18:22.130Z,2.88
2023-02-03T13:20:48.423Z,3.35
2023-02-03T13:23:15.484Z,2.67
2023-02-03T13:25:56.797Z,2.92
2023-02-03T13:28:45.036Z,2.33
2023-02-03T13:31:36.285Z,3.30
2023-02-03T13:34:18.641Z,3.22
2023-02-03T13:36:56.241Z,2.50
2023-02-03T13:39:45.001Z,2.40
2023-02-03T13:42:20.339Z,3.08
2023-02-03T13:44:50.737Z,3.55
2023-02-03T13:47:22.426Z,2.92
2023-02-03T13:49:59.797Z,2.90
2023-02-03T13:52:31.358Z,2.50
2023-02-03T13:54:58.151Z,2.60
2023-02-03T13:57:32.692Z,3.00
2023-02-03T13:59:59.035Z,2.90
2023-02-03T14:02:25.265Z,2.87
2023-02-03T14:04:57.296Z,2.45
2023-02-03T14:07:23.579Z,2.58
2023-02-03T14:10:14.055Z,2.90
2023-02-03T14:12:49.524Z,2.47
2023-02-03T14:15:25.037Z,2.10
2023-02-03T14:17:51.347Z,2.70
2023-02-03T14:20:26.798Z,2.65
2023-02-03T14:23:22.365Z,2.60
2023-02-03T14:25:54.211Z,2.10
2023-02-03T14:28:25.716Z,2.80
2023-02-03T14:31:10.947Z,2.42
2023-02-03T14:34:09.370Z,3.40
2023-02-03T14:36:41.295Z,2.70
2023-02-03T14:39:20.000Z,3.05
2023-02-03T14:42:13.814Z,2.73
2023-02-03T14:45:17.469Z,2.22
2023-02-03T14:48:09.974Z,2.70
2023-02-03T14:50:48.231Z,2.22
2023-02-03T14:53:38.855Z,2.47
2023-02-03T14:56:16.155Z,2.57
2023-02-03T14:58:48.113Z,3.53
2023-02-03T15:01:47.048Z,2.80
2023-02-03T15:04:13.431Z,2.67
2023-02-03T15:06:43.243Z,3.10
2023-02-03T15:09:31.629Z,2.60
2023-02-03T15:11:58.633Z,2.33
2023-02-03T15:14:27.244Z,3.03
2023-02-03T15:16:58.121Z,3.17
2023-02-03T15:19:38.559Z,2.88
2023-02-03T15:22:28.333Z,2.67
2023-02-03T15:25:00.210Z,2.72
2023-02-03T15:27:31.897Z,2.95
2023-02-03T15:29:58.391Z,2.85
2023-02-03T15:32:30.847Z,2.50
2023-02-03T15:34:58.538Z,2.43
2023-02-03T15:37:30.763Z,2.60
2023-02-03T15:40:01.592Z,3.15
2023-02-03T15:42:55.889Z,3.40
2023-02-03T15:45:38.937Z,2.38
2023-02-03T15:48:28.722Z,3.03
2023-02-03T15:51:03.657Z,3.03
2023-02-03T15:53:47.116Z,1.92
2023-02-03T15:56:30.838Z,2.38
2023-02-03T15:58:57.568Z,2.67
2023-02-03T16:01:24.873Z,2.53
2023-02-03T16:03:53.958Z,2.67
2023-02-03T16:06:34.510Z,2.55
2023-02-03T16:09:00.823Z,2.00
2023-02-03T16:11:31.761Z,2.50
2023-02-03T16:14:03.590Z,2.37
2023-02-03T16:16:32.806Z,3.03
2023-02-03T16:19:12.305Z,2.45
2023-02-03T16:21:47.864Z,2.67
2023-02-03T16:24:32.493Z,2.75
2023-02-03T16:27:43.986Z,2.77
2023-02-03T16:30:10.347Z,3.00
2023-02-03T16:32:36.850Z,2.97
2023-02-03T16:35:03.277Z,2.97
2023-02-03T16:37:42.984Z,2.80
2023-02-03T16:40:14.492Z,3.17
2023-02-03T16:42:41.294Z,3.20
2023-02-03T16:45:17.654Z,3.03
2023-02-03T16:47:45.739Z,3.40
2023-02-03T16:50:29.261Z,2.95
2023-02-03T16:53:02.724Z,2.83
2023-02-03T16:55:29.471Z,2.97
2023-02-03T16:57:56.067Z,3.55
2023-02-03T17:00:23.045Z,3.28
2023-02-03T17:02:50.833Z,3.63
2023-02-03T17:05:17.658Z,2.47
2023-02-03T17:07:44.544Z,2.92
2023-02-03T17:10:12.274Z,3.25
2023-02-03T17:12:38.612Z,2.28
2023-02-03T17:15:05.816Z,2.72
2023-02-03T17:17:32.323Z,2.83
2023-02-03T17:19:58.756Z,3.25
2023-02-03T17:22:26.215Z,2.42
2023-02-03T17:24:53.021Z,2.42
2023-02-03T17:27:19.634Z,2.72
2023-02-03T17:29:45.992Z,3.13
2023-02-03T17:32:12.377Z,2.50
2023-02-03T17:34:38.839Z,3.58
2023-02-03T17:37:05.225Z,5.05
2023-02-03T17:55:42.387Z,2.93
2023-02-03T17:58:08.937Z,2.78
2023-02-03T18:00:35.365Z,3.08
2023-02-03T18:03:02.181Z,2.55
2023-02-03T18:05:28.807Z,3.20
2023-02-03T18:07:55.589Z,3.27
2023-02-03T18:10:22.164Z,3.15
2023-02-03T18:12:48.501Z,3.33
2023-02-03T18:15:15.003Z,2.67
2023-02-03T18:17:41.339Z,3.05
2023-02-03T18:20:08.286Z,3.10
2023-02-03T18:22:34.655Z,2.92
2023-02-03T18:25:01.049Z,3.42
2023-02-03T18:27:28.348Z,3.47
2023-02-03T18:29:54.764Z,3.15
2023-02-03T18:32:21.026Z,3.23
2023-02-03T18:34:47.383Z,3.03
2023-02-03T18:37:13.718Z,3.05
2023-02-03T18:39:40.146Z,2.88
2023-02-03T18:42:06.519Z,2.67
2023-02-03T18:44:32.827Z,2.57
2023-02-03T18:46:59.164Z,3.03
2023-02-03T18:49:25.492Z,3.10
2023-02-03T18:51:51.799Z,2.92
2023-02-03T18:54:19.142Z,3.63
2023-02-03T18:56:46.230Z,6.30
2023-02-03T18:59:12.572Z,4.78
2023-02-03T19:01:39.320Z,3.40
2023-02-03T19:04:06.203Z,3.55
2023-02-03T19:06:33.866Z,3.78
2023-02-03T19:09:01.168Z,2.97
2023-02-03T19:11:27.753Z,2.65
2023-02-03T19:13:54.109Z,3.33
2023-02-03T19:16:20.815Z,3.00
2023-02-03T19:18:47.603Z,3.25
2023-02-03T19:21:14.651Z,8.03
2023-02-03T19:23:42.025Z,5.45
2023-02-03T19:26:08.968Z,3.63
2023-02-03T19:28:35.621Z,3.45
2023-02-03T19:31:07.864Z,3.10
2023-02-03T19:33:35.265Z,2.27
2023-02-03T19:36:01.553Z,3.42
2023-02-03T19:38:27.811Z,3.20
2023-02-03T19:40:54.173Z,2.70
2023-02-03T19:43:20.452Z,2.90
2023-02-03T19:45:46.845Z,3.03
2023-02-03T19:48:13.257Z,2.92
2023-02-03T19:50:39.546Z,2.90
2023-02-03T19:53:05.872Z,2.78
2023-02-03T19:55:32.211Z,3.13
2023-02-03T19:57:58.545Z,3.20
2023-02-03T20:00:24.834Z,4.22
2023-02-03T20:02:51.204Z,3.65
2023-02-03T20:05:17.874Z,3.45
2023-02-03T20:07:44.171Z,3.75
2023-02-03T20:10:10.811Z,3.47
2023-02-03T20:12:37.155Z,3.10
2023-02-03T20:15:04.077Z,3.13
2023-02-03T20:17:30.439Z,3.97
2023-02-03T20:19:56.732Z,3.08
2023-02-03T20:22:23.772Z,3.97
2023-02-03T20:24:50.068Z,2.75
2023-02-03T20:27:16.503Z,2.95
2023-02-03T20:29:42.869Z,3.95
2023-02-03T20:32:09.497Z,4.03
2023-02-03T20:34:35.832Z,2.67
2023-02-03T20:37:02.194Z,3.35
2023-02-03T20:39:28.501Z,3.28
2023-02-03T20:41:54.908Z,2.67
2023-02-03T20:44:21.297Z,3.45
2023-02-03T20:46:47.611Z,4.27
2023-02-03T20:49:16.615Z,2.88
2023-02-03T20:51:42.999Z,3.22
2023-02-03T20:54:21.888Z,2.95
2023-02-03T20:56:48.950Z,2.70
2023-02-03T20:59:19.298Z,3.03
2023-02-03T21:01:46.402Z,2.65
2023-02-03T21:04:14.417Z,2.85
2023-02-03T21:06:40.707Z,2.70
2023-02-03T21:09:15.435Z,3.42
2023-02-03T21:11:42.585Z,2.80
2023-02-03T21:14:20.356Z,3.28
2023-02-03T21:16:47.766Z,2.90
2023-02-03T21:19:28.460Z,3.60
2023-02-03T21:21:55.682Z,2.22
2023-02-03T21:24:26.476Z,2.50
2023-02-03T21:26:53.672Z,1.92
2023-02-03T21:29:35.372Z,2.80
2023-02-03T21:32:01.763Z,2.63
2023-02-03T21:34:31.591Z,2.38
2023-02-03T21:37:04.279Z,2.80
2023-02-03T21:39:33.336Z,2.38
2023-02-03T21:42:27.451Z,2.95
2023-02-03T21:44:53.776Z,2.60
2023-02-03T21:47:20.136Z,2.40
2023-02-03T21:49:46.502Z,2.23
2023-02-03T21:52:13.739Z,3.05
2023-02-03T21:54:43.130Z,2.65
2023-02-03T21:57:16.958Z,2.55
2023-02-03T21:59:43.775Z,2.38
2023-02-03T22:02:56.016Z,2.70
2023-02-03T22:05:22.524Z,3.03
2023-02-03T22:07:48.988Z,2.42
2023-02-03T22:10:15.494Z,2.63
2023-02-03T22:12:41.953Z,2.83
2023-02-03T22:15:08.962Z,3.30
2023-02-03T22:17:35.396Z,2.67
2023-02-03T22:20:01.835Z,2.70
2023-02-03T22:22:28.234Z,2.08
2023-02-03T22:24:54.591Z,3.03
2023-02-03T22:27:21.227Z,2.27
2023-02-03T22:29:47.520Z,2.22
2023-02-03T22:32:13.903Z,2.83
2023-02-03T22:34:40.609Z,2.95
2023-02-03T22:37:06.962Z,2.95
2023-02-03T22:39:33.415Z,2.67
2023-02-03T22:41:59.798Z,3.22
2023-02-03T22:44:26.204Z,2.95
2023-02-03T22:46:52.775Z,2.08
2023-02-03T22:49:19.086Z,3.65
2023-02-03T22:51:45.394Z,2.30
2023-02-03T22:54:11.770Z,2.90
2023-02-03T22:56:38.187Z,2.67
2023-02-03T22:59:04.557Z,2.72
2023-02-03T23:01:30.965Z,2.58
2023-02-03T23:03:57.273Z,2.33
2023-02-03T23:06:23.645Z,2.00
2023-02-03T23:08:50.077Z,2.60
2023-02-03T23:11:16.466Z,2.40
2023-02-03T23:13:42.949Z,2.72
2023-02-03T23:16:09.386Z,2.37
2023-02-03T23:18:36.128Z,2.35
2023-02-03T23:21:02.511Z,2.47
2023-02-03T23:23:28.896Z,2.40
2023-02-03T23:25:55.317Z,2.78
2023-02-03T23:28:21.773Z,2.63
2023-02-03T23:30:48.370Z,2.30
2023-02-03T23:33:14.792Z,2.53
2023-02-03T23:35:41.114Z,2.13
2023-02-03T23:38:07.413Z,2.33
2023-02-03T23:40:33.853Z,2.77
2023-02-03T23:43:00.195Z,2.65
2023-02-03T23:45:26.782Z,2.30
2023-02-03T23:47:53.332Z,2.42
2023-02-03T23:50:19.822Z,2.47
2023-02-03T23:52:47.219Z,2.80
2023-02-03T23:55:17.046Z,2.40
2023-02-03T23:57:44.206Z,2.47
